Time;durP1;ratioP1;P1;durP2;ratioP2;P2;SDS_P1;SDS_P2;PMS_P1;PMS_P2;Temp;Humidity;BMP_temperature;BMP_pressure;BME280_temperature;BME280_humidity;BME280_pressure;Samples;Min_cycle;Max_cycle;Signal;HPM_P1;HPM_P2
2022/02/05 00:00:09;;;;;;;13.07;1.75;;;;;;;1.73;97.06;100967.94;2055823;28;43317;-72
2022/02/05 00:00:51;;;;;;;9.32;1.65;;;;;;;1.75;96.39;100971.47;2056314;28;44075;-72
2022/02/05 00:01:54;;;;;;;11.63;2.60;;;;;;;1.77;96.74;100956.53;2055076;28;46586;-72
2022/02/05 00:04:12;;;;;;;13.07;2.42;;;;;;;1.80;96.50;100959.22;2046472;28;43906;-72
2022/02/05 00:05:17;;;;;;;9.20;2.38;;;;;;;1.80;96.62;100968.91;2049299;28;45099;-72
2022/02/05 00:06:22;;;;;;;13.45;3.65;;;;;;;1.81;96.57;100970.66;2055565;28;44596;-72
2022/02/05 00:07:26;;;;;;;19.10;3.42;;;;;;;1.82;96.43;100964.53;2055941;28;45331;-72
2022/02/05 00:10:03;;;;;;;19.35;3.33;;;;;;;1.84;96.67;100962.81;2055911;28;44716;-72
2022/02/05 00:14:58;;;;;;;12.95;3.38;;;;;;;1.83;96.85;100964.56;2055470;28;45670;-72
2022/02/05 00:38:53;;;;;;;16.10;2.60;;;;;;;2.01;96.21;100990.31;2055389;28;41897;-72
2022/02/05 00:40:03;;;;;;;17.00;1.90;;;;;;;2.07;96.00;101005.34;2055269;28;45198;-72
2022/02/05 00:42:43;;;;;;;13.00;2.15;;;;;;;2.13;95.07;100989.56;2039964;28;42969;-72
2022/02/05 00:45:15;;;;;;;14.52;1.33;;;;;;;2.08;94.84;101002.72;2049983;28;46167;-72
2022/02/05 00:46:17;;;;;;;10.95;1.27;;;;;;;2.08;95.10;101018.56;2055807;28;42750;-72
2022/02/05 00:47:19;;;;;;;10.52;1.85;;;;;;;2.07;95.16;101015.91;2055321;28;42551;-72
2022/02/05 00:48:22;;;;;;;11.32;1.40;;;;;;;2.06;94.92;101020.31;2055522;28;41713;-72
2022/02/05 00:49:23;;;;;;;11.20;1.90;;;;;;;2.05;95.07;101015.00;2055289;28;46674;-72
2022/02/05 00:50:27;;;;;;;11.75;1.77;;;;;;;2.03;95.15;101020.25;2055373;28;45749;-72
2022/02/05 00:51:34;;;;;;;10.48;1.35;;;;;;;2.05;95.33;101013.25;2055291;28;45281;-72
2022/02/05 00:52:36;;;;;;;9.50;1.48;;;;;;;2.08;95.21;101008.00;2055396;28;41393;-72
2022/02/05 00:53:40;;;;;;;10.85;1.85;;;;;;;2.06;95.76;101015.03;2055263;28;45554;-72
2022/02/05 00:54:46;;;;;;;10.35;1.40;;;;;;;2.03;95.80;101022.91;2055417;28;45471;-72
2022/02/05 00:55:56;;;;;;;12.48;1.90;;;;;;;2.02;95.75;101020.25;2056298;28;20035;-72
2022/02/05 00:58:07;;;;;;;14.10;1.70;;;;;;;1.99;95.87;101018.47;2054978;28;46469;-71
2022/02/05 00:59:09;;;;;;;15.13;1.58;;;;;;;2.00;95.30;101019.34;2055623;28;45688;-71
2022/02/05 01:00:17;;;;;;;10.82;1.75;;;;;;;1.99;95.71;101023.75;2055035;28;42942;-71
2022/02/05 01:01:20;;;;;;;12.65;1.50;;;;;;;1.96;95.78;101022.81;2046602;28;44936;-72
2022/02/05 01:02:23;;;;;;;18.30;1.83;;;;;;;1.93;95.36;101021.00;2046767;28;44226;-72
2022/02/05 01:03:26;;;;;;;11.27;1.58;;;;;;;1.94;95.88;101020.16;2055617;28;44119;-72
2022/02/05 01:04:28;;;;;;;4.82;1.15;;;;;;;1.90;95.60;101016.56;2055177;28;46293;-72
2022/02/05 01:05:35;;;;;;;11.45;1.73;;;;;;;1.91;96.01;101020.97;2055223;28;44962;-71
2022/02/05 01:06:37;;;;;;;12.40;1.23;;;;;;;1.91;95.45;101028.91;2046525;28;46136;-72
2022/02/05 01:07:39;;;;;;;11.57;1.63;;;;;;;1.93;95.90;101034.19;2047296;28;38770;-72
2022/02/05 01:08:41;;;;;;;12.25;1.50;;;;;;;1.95;95.70;101032.47;2046058;28;43952;-72
2022/02/05 01:09:46;;;;;;;13.93;1.70;;;;;;;1.94;95.71;101028.06;2047145;28;45833;-71
2022/02/05 01:10:50;;;;;;;16.77;1.75;;;;;;;1.92;95.84;101029.81;2054872;28;46271;-72
2022/02/05 01:11:54;;;;;;;14.40;1.23;;;;;;;1.95;95.48;101031.59;2055401;28;45721;-72
2022/02/05 01:13:01;;;;;;;11.23;1.20;;;;;;;1.91;95.51;101035.94;2054748;28;44700;-72
2022/02/05 01:14:05;;;;;;;11.93;1.55;;;;;;;1.91;95.09;101031.53;2055374;28;45275;-72
2022/02/05 01:15:08;;;;;;;11.43;1.48;;;;;;;1.88;95.79;101036.78;2055096;28;39356;-72
2022/02/05 01:17:13;;;;;;;9.73;1.25;;;;;;;1.83;95.54;101038.47;2054902;28;45639;-72
2022/02/05 01:18:17;;;;;;;13.25;1.50;;;;;;;1.80;95.33;101042.81;2056459;28;20040;-72
2022/02/05 01:21:03;;;;;;;18.25;1.80;;;;;;;1.80;95.76;101042.81;2055423;28;41074;-71
2022/02/05 01:22:07;;;;;;;11.40;1.52;;;;;;;1.80;95.50;101046.34;2055383;28;43051;-72
2022/02/05 01:23:13;;;;;;;11.50;1.35;;;;;;;1.82;95.64;101051.66;2046449;28;45470;-72
2022/02/05 01:24:18;;;;;;;13.68;1.48;;;;;;;1.82;95.50;101049.88;2048040;28;45810;-71
2022/02/05 01:25:24;;;;;;;16.17;1.63;;;;;;;1.80;95.25;101053.38;2054699;28;45299;-71
2022/02/05 01:26:35;;;;;;;11.23;1.20;;;;;;;1.78;95.19;101057.75;2055033;28;45025;-72
2022/02/05 01:27:47;;;;;;;13.07;1.45;;;;;;;1.83;95.59;101056.03;2055262;28;44493;-72
2022/02/05 01:28:55;;;;;;;12.23;1.65;;;;;;;1.76;95.52;101065.66;2055323;28;44098;-71
2022/02/05 01:31:17;;;;;;;18.20;1.52;;;;;;;1.74;95.16;101067.34;2054455;28;44983;-72
2022/02/05 01:32:23;;;;;;;15.18;1.10;;;;;;;1.72;95.22;101069.09;2055143;28;46170;-71
2022/02/05 01:34:52;;;;;;;11.90;1.25;;;;;;;1.68;95.60;101075.19;2055477;28;43907;-72
2022/02/05 01:54:32;;;;;;;13.23;1.80;;;;;;;1.62;95.51;101088.31;2046148;28;43891;-71
2022/02/05 01:55:50;;;;;;;15.40;1.48;;;;;;;1.63;95.24;101100.63;2051936;28;46642;-71
2022/02/05 01:57:08;;;;;;;14.75;1.20;;;;;;;1.61;95.40;101103.22;2054947;28;44676;-71
2022/02/05 01:58:18;;;;;;;12.50;1.48;;;;;;;1.68;95.81;101104.22;2047079;28;20501;-72
2022/02/05 02:05:01;;;;;;;15.50;1.60;;;;;;;1.70;95.45;101118.31;2054445;28;44666;-72
2022/02/05 02:12:51;;;;;;;13.00;1.98;;;;;;;1.82;95.20;101118.53;2049830;28;20117;-71
2022/02/05 02:15:24;;;;;;;10.90;1.45;;;;;;;1.86;95.10;101117.69;2054404;28;44226;-71
2022/02/05 02:23:41;;;;;;;15.70;1.65;;;;;;;2.03;95.07;101115.34;2045835;28;43457;-71
2022/02/05 02:26:05;;;;;;;15.23;1.92;;;;;;;2.06;94.40;101109.19;2055072;28;41386;-71
2022/02/05 02:28:26;;;;;;;10.52;1.85;;;;;;;2.05;94.35;101118.88;2055791;28;20114;-71
2022/02/05 02:30:41;;;;;;;12.60;1.63;;;;;;;2.03;94.43;101119.75;2049323;28;44214;-72
2022/02/05 02:31:46;;;;;;;10.23;1.45;;;;;;;1.99;94.31;101113.53;2054330;28;45168;-71
2022/02/05 02:32:54;;;;;;;13.60;1.52;;;;;;;1.98;94.22;101119.66;2054930;28;44478;-71
2022/02/05 02:33:59;;;;;;;13.10;1.40;;;;;;;1.93;94.83;101120.44;2054528;28;44265;-71
2022/02/05 02:35:06;;;;;;;13.50;1.95;;;;;;;1.88;94.63;101123.00;2054774;28;44911;-72
2022/02/05 02:36:17;;;;;;;11.68;1.50;;;;;;;1.86;94.85;101125.63;2046232;28;43729;-72
2022/02/05 02:37:27;;;;;;;13.32;1.75;;;;;;;1.82;94.45;101118.53;2047932;28;39758;-71
2022/02/05 02:38:43;;;;;;;12.77;1.75;;;;;;;1.82;94.09;101136.13;2055021;28;45812;-71
2022/02/05 02:41:09;;;;;;;13.93;1.00;;;;;;;1.78;94.69;101132.56;2054136;28;46878;-71
2022/02/05 02:42:12;;;;;;;10.80;1.27;;;;;;;1.76;95.08;101134.28;2054491;28;44341;-72
2022/02/05 02:43:19;;;;;;;17.45;1.98;;;;;;;1.76;94.97;101139.56;2054868;28;44216;-71
2022/02/05 02:44:21;;;;;;;17.20;1.70;;;;;;;1.75;95.12;101135.13;2053377;28;47127;-71
2022/02/05 02:45:23;;;;;;;11.18;1.13;;;;;;;1.76;95.21;101136.00;2055153;28;45225;-71
2022/02/05 02:46:25;;;;;;;12.65;1.60;;;;;;;1.75;94.84;101140.41;2054397;28;44906;-71
2022/02/05 02:47:26;;;;;;;16.77;1.63;;;;;;;1.72;94.75;101143.00;2054801;28;44234;-71
2022/02/05 02:48:28;;;;;;;13.80;1.45;;;;;;;1.74;94.89;101133.34;2054717;28;44057;-72
2022/02/05 02:49:47;;;;;;;14.75;1.70;;;;;;;1.73;94.75;101136.84;2056739;28;20899;-72
2022/02/05 02:57:33;;;;;;;10.95;0.70;;;;;;;1.88;94.95;101146.78;2054238;28;44122;-71
2022/02/05 02:58:40;;;;;;;15.75;1.05;;;;;;;1.95;94.79;101132.81;2056180;28;46091;-71
2022/02/05 02:59:51;;;;;;;14.38;1.17;;;;;;;1.99;94.28;101145.22;2055675;28;44691;-71
2022/02/05 03:00:56;;;;;;;15.48;1.02;;;;;;;2.01;94.72;101148.75;2056466;28;45247;-72
2022/02/05 03:02:10;;;;;;;12.75;1.08;;;;;;;2.06;94.96;101151.44;2047586;28;46629;-72
2022/02/05 03:03:12;;;;;;;13.43;0.75;;;;;;;2.11;93.76;101149.78;2050002;28;42101;-72
2022/02/05 03:04:14;;;;;;;17.48;2.03;;;;;;;2.11;94.01;101152.41;2056313;28;45151;-72
2022/02/05 03:05:15;;;;;;;13.48;1.10;;;;;;;2.12;94.27;101145.38;2055894;28;45490;-71
2022/02/05 03:06:17;;;;;;;12.80;1.13;;;;;;;2.13;93.65;101142.75;2056203;28;44759;-72
2022/02/05 03:07:23;;;;;;;11.43;1.20;;;;;;;2.14;93.66;101157.75;2055995;28;44822;-72
2022/02/05 03:08:25;;;;;;;12.98;1.10;;;;;;;2.15;93.31;101148.94;2056188;28;44673;-71
2022/02/05 03:09:27;;;;;;;8.82;0.65;;;;;;;2.15;92.97;101156.88;2055741;28;42912;-71
2022/02/05 03:10:28;;;;;;;14.52;1.20;;;;;;;2.13;93.41;101158.59;2056143;28;46026;-71
2022/02/05 03:11:30;;;;;;;12.45;1.00;;;;;;;2.11;93.33;101162.97;2055685;28;44094;-71
2022/02/05 03:12:34;;;;;;;10.65;1.33;;;;;;;2.16;92.90;101153.38;2047214;28;46642;-71
2022/02/05 03:13:36;;;;;;;12.77;1.33;;;;;;;2.16;92.80;101165.69;2047521;28;45958;-71
2022/02/05 03:14:38;;;;;;;12.57;1.13;;;;;;;2.18;92.73;101154.28;2056098;28;37520;-71
2022/02/05 03:15:42;;;;;;;16.50;1.17;;;;;;;2.20;92.70;101163.09;2047232;28;43484;-71
2022/02/05 03:16:51;;;;;;;14.77;1.27;;;;;;;2.22;92.57;101174.59;2048185;28;43894;-71
2022/02/05 03:18:04;;;;;;;14.00;1.33;;;;;;;2.22;92.68;101169.28;2056126;28;43064;-71
2022/02/05 03:20:09;;;;;;;12.60;0.70;;;;;;;2.16;92.59;101174.50;2055589;28;44243;-71
2022/02/05 03:21:10;;;;;;;12.57;0.82;;;;;;;2.17;92.86;101184.22;2056173;28;44494;-72
2022/02/05 03:22:17;;;;;;;11.27;1.05;;;;;;;2.23;92.22;101180.78;2055295;28;46707;-71
2022/02/05 03:23:19;;;;;;;15.35;1.08;;;;;;;2.19;92.36;101185.13;2055765;28;47913;-72
2022/02/05 03:24:20;;;;;;;15.23;1.15;;;;;;;2.17;92.31;101197.44;2056315;28;44365;-71
2022/02/05 03:25:22;;;;;;;11.35;0.68;;;;;;;2.15;92.41;101177.13;2056375;28;45129;-71
2022/02/05 03:26:24;;;;;;;12.00;1.15;;;;;;;2.17;92.88;101184.22;2055883;28;41248;-72
2022/02/05 03:27:26;;;;;;;16.17;1.90;;;;;;;2.17;92.58;101180.66;2055956;28;42382;-72
2022/02/05 03:28:28;;;;;;;14.07;1.30;;;;;;;2.12;92.42;101192.91;2055080;28;46085;-71
2022/02/05 03:29:29;;;;;;;7.15;1.42;;;;;;;2.14;92.85;101184.16;2056087;28;46067;-71
2022/02/05 03:30:32;;;;;;;10.10;1.10;;;;;;;2.09;92.85;101189.34;2055621;28;42785;-71
2022/02/05 03:31:37;;;;;;;20.50;1.88;;;;;;;2.11;92.37;101189.38;2055836;28;43947;-72
2022/02/05 03:32:39;;;;;;;14.50;1.15;;;;;;;2.09;93.00;101186.72;2055816;28;44253;-71
2022/02/05 03:33:42;;;;;;;10.98;1.00;;;;;;;2.11;93.19;101192.03;2056023;28;45681;-71
2022/02/05 03:34:44;;;;;;;10.55;1.10;;;;;;;2.09;92.82;101193.75;2055930;28;44747;-71
2022/02/05 03:35:46;;;;;;;12.60;1.45;;;;;;;2.08;92.75;101194.63;2055967;28;43889;-71
2022/02/05 03:36:48;;;;;;;15.60;1.48;;;;;;;2.07;93.14;101191.09;2055828;28;44281;-72
2022/02/05 03:37:50;;;;;;;12.23;1.48;;;;;;;2.05;93.12;101199.88;2056178;28;42079;-71
2022/02/05 03:38:52;;;;;;;15.75;1.60;;;;;;;2.01;93.55;101198.94;2055535;28;45166;-71
2022/02/05 03:39:53;;;;;;;17.17;1.90;;;;;;;2.03;92.99;101193.69;2055606;28;46490;-72
2022/02/05 03:40:55;;;;;;;11.45;1.30;;;;;;;2.03;93.37;101196.31;2055272;28;45368;-71
2022/02/05 03:41:57;;;;;;;14.40;1.40;;;;;;;2.00;93.17;101198.91;2055494;28;43852;-71
2022/02/05 03:42:59;;;;;;;17.90;1.63;;;;;;;2.00;92.85;101198.91;2055338;28;44920;-71
2022/02/05 03:44:01;;;;;;;11.43;1.55;;;;;;;2.04;93.79;101200.72;2056041;28;42967;-71
2022/02/05 03:45:05;;;;;;;13.13;1.75;;;;;;;2.04;93.37;101195.44;2046486;28;46153;-71
2022/02/05 03:46:07;;;;;;;13.75;1.38;;;;;;;2.00;93.39;101194.50;2048777;28;20042;-71
2022/02/05 03:47:09;;;;;;;13.95;1.60;;;;;;;2.01;93.24;101195.38;2047503;28;44060;-72
2022/02/05 03:48:11;;;;;;;13.30;1.27;;;;;;;2.00;92.95;101186.56;2055967;28;44848;-71
2022/02/05 03:49:16;;;;;;;14.63;1.60;;;;;;;2.00;93.15;101196.25;2055411;28;44935;-71
2022/02/05 03:50:19;;;;;;;12.20;1.27;;;;;;;1.99;93.27;101198.03;2056893;28;20036;-71
2022/02/05 03:51:21;;;;;;;15.38;1.65;;;;;;;1.99;93.68;101194.47;2055680;28;42138;-71
2022/02/05 03:52:24;;;;;;;13.50;1.63;;;;;;;2.00;94.40;101193.63;2055527;28;44350;-71
2022/02/05 03:53:26;;;;;;;20.42;1.50;;;;;;;2.02;93.70;101205.09;2055568;28;45674;-71
2022/02/05 03:54:30;;;;;;;18.83;2.50;;;;;;;2.02;93.69;101208.59;2047507;28;45436;-71
2022/02/05 03:55:33;;;;;;;15.70;1.70;;;;;;;2.04;94.05;101209.53;2047572;28;46414;-72
2022/02/05 03:56:34;;;;;;;19.02;2.33;;;;;;;2.05;94.19;101207.78;2055959;28;44671;-71
2022/02/05 03:57:36;;;;;;;16.42;1.85;;;;;;;2.06;94.18;101206.91;2055256;28;45344;-71
2022/02/05 03:58:38;;;;;;;17.08;1.67;;;;;;;2.05;94.40;101213.94;2046572;28;43723;-71
2022/02/05 03:59:43;;;;;;;18.80;2.15;;;;;;;2.09;94.30;101214.88;2046590;28;44227;-72
2022/02/05 04:00:44;;;;;;;13.63;1.85;;;;;;;2.12;93.49;101214.03;2046889;28;46570;-71
2022/02/05 04:01:46;;;;;;;19.08;2.10;;;;;;;2.15;94.06;101214.09;2047260;28;44472;-71
2022/02/05 04:02:53;;;;;;;18.92;2.22;;;;;;;2.17;93.70;101229.13;2047757;28;45057;-72
2022/02/05 04:03:54;;;;;;;21.73;1.90;;;;;;;2.17;93.37;101218.56;2047719;28;46228;-72
2022/02/05 04:04:56;;;;;;;22.27;2.03;;;;;;;2.20;93.24;101225.63;2048045;28;37947;-72
2022/02/05 04:06:00;;;;;;;13.32;1.75;;;;;;;2.18;93.47;101222.97;2047521;28;44776;-72
2022/02/05 04:07:03;;;;;;;13.95;1.85;;;;;;;2.14;93.74;101231.72;2047646;28;44659;-72
2022/02/05 04:08:08;;;;;;;18.80;1.77;;;;;;;2.16;93.44;101237.91;2047968;28;45744;-71
2022/02/05 04:09:18;;;;;;;21.38;1.92;;;;;;;2.19;93.38;101232.66;2047642;28;47039;-71
2022/02/05 04:10:27;;;;;;;19.35;1.75;;;;;;;2.18;93.24;101225.59;2048052;28;35289;-72
2022/02/05 04:11:34;;;;;;;21.10;1.85;;;;;;;2.20;92.92;101237.06;2047321;28;44280;-72
2022/02/05 04:16:37;;;;;;;13.98;1.35;;;;;;;2.24;93.16;101241.56;2047553;28;43083;-71
2022/02/05 04:17:39;;;;;;;11.25;1.00;;;;;;;2.22;92.63;101237.97;2047800;28;44055;-71
2022/02/05 04:18:43;;;;;;;22.02;1.40;;;;;;;2.21;93.14;101238.88;2048882;28;20058;-72
2022/02/05 04:19:45;;;;;;;18.48;1.52;;;;;;;2.23;92.94;101244.19;2047868;28;42665;-71
2022/02/05 04:20:46;;;;;;;19.05;1.75;;;;;;;2.23;93.02;101249.47;2047439;28;46086;-71
2022/02/05 04:21:48;;;;;;;17.60;1.73;;;;;;;2.20;92.82;101244.13;2047382;28;42971;-72
2022/02/05 04:22:50;;;;;;;13.07;1.60;;;;;;;2.18;93.61;101238.81;2047021;28;45330;-72
2022/02/05 04:23:53;;;;;;;16.85;1.48;;;;;;;2.19;93.21;101240.59;2046791;28;44640;-72
2022/02/05 04:24:54;;;;;;;20.13;1.92;;;;;;;2.17;92.87;101244.97;2047482;28;45684;-71
2022/02/05 04:25:59;;;;;;;21.35;1.75;;;;;;;2.15;93.34;101237.88;2047281;28;47137;-71
2022/02/05 04:27:03;;;;;;;17.98;1.20;;;;;;;2.13;92.92;101248.41;2048691;28;20036;-71
2022/02/05 04:28:05;;;;;;;18.30;1.90;;;;;;;2.13;93.49;101247.53;2050238;28;43914;-71
2022/02/05 04:29:09;;;;;;;10.27;1.33;;;;;;;2.11;93.65;101244.84;2046940;28;44264;-71
2022/02/05 04:30:12;;;;;;;18.38;1.73;;;;;;;2.09;93.32;101244.81;2047180;28;42879;-71
2022/02/05 04:31:13;;;;;;;14.30;1.95;;;;;;;2.07;92.95;101243.91;2055740;28;46384;-71
2022/02/05 04:32:16;;;;;;;16.50;1.90;;;;;;;2.06;93.75;101239.50;2047118;28;43591;-71
2022/02/05 04:33:17;;;;;;;17.17;2.25;;;;;;;2.04;93.46;101242.97;2046955;28;44597;-72
2022/02/05 04:34:22;;;;;;;15.43;1.90;;;;;;;2.01;93.53;101238.53;2055572;28;45108;-71
2022/02/05 04:35:24;;;;;;;17.17;1.65;;;;;;;2.01;93.93;101238.53;2055922;28;39723;-72
2022/02/05 04:36:26;;;;;;;17.17;1.52;;;;;;;2.06;93.92;101242.16;2055327;28;45077;-71
2022/02/05 04:37:29;;;;;;;22.23;2.10;;;;;;;2.04;94.08;101243.84;2055454;28;43925;-71
2022/02/05 04:38:32;;;;;;;13.38;1.88;;;;;;;2.04;93.57;101249.13;2055802;28;36847;-72
2022/02/05 04:39:38;;;;;;;18.63;1.98;;;;;;;2.04;93.56;101248.25;2055592;28;45041;-71
2022/02/05 04:40:50;;;;;;;15.90;1.25;;;;;;;2.04;93.92;101253.53;2055545;28;44566;-71
2022/02/05 04:41:59;;;;;;;17.83;1.80;;;;;;;2.08;93.98;101256.28;2055236;28;44753;-71
2022/02/05 04:44:27;;;;;;;14.52;1.75;;;;;;;2.07;93.53;101259.75;2055065;28;45163;-71
2022/02/05 04:47:19;;;;;;;18.42;1.50;;;;;;;2.04;93.92;101258.81;2055631;28;45240;-72
2022/02/05 04:51:16;;;;;;;17.77;1.98;;;;;;;2.09;93.83;101265.94;2055669;28;43892;-71
2022/02/05 04:53:45;;;;;;;21.40;2.00;;;;;;;2.14;93.42;101275.72;2055497;28;39845;-71
2022/02/05 04:56:14;;;;;;;18.77;1.60;;;;;;;2.19;93.55;101274.03;2055481;28;40596;-71
2022/02/05 04:57:34;;;;;;;14.85;1.60;;;;;;;2.23;92.76;101262.66;2055322;28;45438;-71
2022/02/05 05:01:07;;;;;;;17.55;1.73;;;;;;;2.22;92.37;101274.09;2055622;28;43145;-71
2022/02/05 05:08:38;;;;;;;23.33;1.60;;;;;;;2.06;93.07;101297.63;2046609;28;44801;-72
2022/02/05 05:13:33;;;;;;;21.50;2.25;;;;;;;1.99;93.38;101300.09;2055380;28;43790;-71
2022/02/05 05:19:47;;;;;;;12.90;1.48;;;;;;;2.03;93.34;101320.44;2055291;28;45566;-71
2022/02/05 05:20:49;;;;;;;18.48;1.60;;;;;;;2.02;92.43;101319.53;2054978;28;46754;-71
2022/02/05 05:21:51;;;;;;;23.17;1.50;;;;;;;2.06;92.73;101315.19;2055076;28;44223;-71
2022/02/05 05:22:53;;;;;;;21.13;1.67;;;;;;;2.07;92.47;101322.25;2055344;28;44503;-72
2022/02/05 05:23:55;;;;;;;20.25;1.98;;;;;;;2.06;92.25;101320.47;2055396;28;46270;-71
2022/02/05 05:24:58;;;;;;;18.00;1.70;;;;;;;2.04;92.25;101322.19;2054355;28;43254;-72
2022/02/05 05:26:00;;;;;;;19.83;1.58;;;;;;;2.04;92.64;101317.78;2055059;28;46640;-71
2022/02/05 05:27:02;;;;;;;16.35;2.47;;;;;;;2.02;92.34;101323.94;2054748;28;47294;-72
2022/02/05 05:28:04;;;;;;;19.45;1.60;;;;;;;2.03;92.17;101325.72;2055402;28;44280;-71
2022/02/05 05:29:05;;;;;;;16.08;1.50;;;;;;;2.01;91.73;101322.13;2055217;28;46419;-71
2022/02/05 05:30:08;;;;;;;19.25;1.70;;;;;;;2.05;91.25;101327.50;2055176;28;45752;-71
2022/02/05 05:31:09;;;;;;;16.83;1.80;;;;;;;2.03;91.33;101323.06;2055154;28;43204;-72
2022/02/05 05:32:11;;;;;;;17.15;1.80;;;;;;;2.04;90.99;101327.47;2055316;28;45650;-72
2022/02/05 05:33:13;;;;;;;16.15;1.30;;;;;;;2.03;90.79;101325.72;2055035;28;45217;-72
2022/02/05 05:34:14;;;;;;;16.75;1.77;;;;;;;2.01;91.21;101330.06;2055276;28;44444;-72
2022/02/05 05:35:18;;;;;;;18.23;1.48;;;;;;;2.01;91.60;101333.59;2054807;28;43240;-72
2022/02/05 05:36:22;;;;;;;19.10;2.00;;;;;;;2.01;91.39;101337.97;2055575;28;44292;-71
2022/02/05 05:37:24;;;;;;;20.02;1.98;;;;;;;1.95;91.26;101345.81;2055097;28;46140;-71
2022/02/05 05:38:29;;;;;;;16.10;1.80;;;;;;;1.93;91.78;101343.13;2055018;28;45059;-71
2022/02/05 05:39:35;;;;;;;17.05;1.10;;;;;;;1.96;91.92;101356.41;2054787;28;46642;-71
2022/02/05 05:40:39;;;;;;;14.80;1.40;;;;;;;1.98;91.53;101349.38;2054940;28;45706;-72
2022/02/05 05:41:43;;;;;;;18.63;1.70;;;;;;;1.99;91.37;101350.28;2055102;28;43925;-71
2022/02/05 05:42:52;;;;;;;20.42;1.80;;;;;;;1.99;91.57;101350.28;2055214;28;44630;-71
2022/02/05 05:45:25;;;;;;;20.08;2.05;;;;;;;1.97;92.13;101357.28;2047395;28;46692;-71
2022/02/05 05:46:40;;;;;;;16.00;1.27;;;;;;;1.94;92.46;101347.56;2055375;28;43107;-72
2022/02/05 05:47:57;;;;;;;16.75;1.65;;;;;;;1.99;91.93;101363.47;2054591;28;45055;-71
2022/02/05 05:49:21;;;;;;;12.23;1.63;;;;;;;1.96;92.54;101366.97;2054930;28;46427;-71
2022/02/05 05:50:57;;;;;;;16.02;1.73;;;;;;;1.97;91.99;101383.69;2055220;28;42034;-72
2022/02/05 05:51:45;;;;;;;24.42;1.60;;;;;;;1.95;91.93;101366.94;2054703;28;45433;-72
2022/02/05 05:52:47;;;;;;;16.13;1.25;;;;;;;1.94;92.14;101373.06;2046660;28;46088;-71
2022/02/05 05:53:49;;;;;;;22.40;1.88;;;;;;;1.94;92.37;101371.31;2046386;28;45380;-72
2022/02/05 05:54:50;;;;;;;17.75;1.58;;;;;;;1.94;92.53;101373.97;2055000;28;44938;-72
2022/02/05 05:55:52;;;;;;;17.13;1.45;;;;;;;1.93;92.84;101389.78;2054769;28;44913;-72
2022/02/05 05:56:58;;;;;;;13.13;1.23;;;;;;;1.91;92.61;101385.34;2055478;28;41228;-72
2022/02/05 05:58:02;;;;;;;16.67;1.85;;;;;;;1.90;92.79;101390.59;2054918;28;44677;-72
2022/02/05 05:59:05;;;;;;;17.05;1.65;;;;;;;1.87;92.81;101388.78;2046577;28;45261;-72
2022/02/05 06:00:07;;;;;;;18.58;1.70;;;;;;;1.90;93.10;101390.59;2046589;28;46199;-72
2022/02/05 06:01:09;;;;;;;17.63;1.67;;;;;;;1.92;92.67;101388.91;2054798;28;45425;-71
2022/02/05 06:02:11;;;;;;;20.67;1.50;;;;;;;1.93;92.84;101389.78;2045864;28;45061;-72
2022/02/05 06:03:13;;;;;;;20.95;1.55;;;;;;;1.93;92.06;101392.41;2038307;28;46987;-71
2022/02/05 06:04:14;;;;;;;20.80;1.73;;;;;;;1.92;92.51;101386.25;2046422;28;45238;-72
2022/02/05 06:05:16;;;;;;;25.75;1.98;;;;;;;1.94;91.94;101383.63;2055278;28;36388;-71
2022/02/05 06:06:18;;;;;;;16.38;1.33;;;;;;;1.95;92.11;101395.97;2054764;28;43372;-71
2022/02/05 06:07:19;;;;;;;19.52;1.65;;;;;;;1.91;92.04;101395.03;2055133;28;45597;-71
2022/02/05 06:08:21;;;;;;;18.73;1.90;;;;;;;1.95;91.42;101395.97;2055364;28;45683;-72
2022/02/05 06:09:23;;;;;;;13.02;1.50;;;;;;;1.90;91.75;101394.13;2055267;28;43333;-71
2022/02/05 06:10:25;;;;;;;23.73;2.00;;;;;;;1.86;91.72;101394.91;2054653;28;44061;-72
2022/02/05 06:11:27;;;;;;;17.73;2.05;;;;;;;1.84;91.77;101396.63;2055310;28;46207;-71
2022/02/05 06:12:28;;;;;;;13.45;1.40;;;;;;;1.82;91.27;101401.00;2054344;28;45222;-71
2022/02/05 06:13:31;;;;;;;18.65;1.70;;;;;;;1.78;91.17;101401.81;2054752;28;43978;-72
2022/02/05 06:14:33;;;;;;;19.33;1.60;;;;;;;1.76;91.22;101405.25;2054779;28;44727;-71
2022/02/05 06:15:35;;;;;;;16.10;1.40;;;;;;;1.76;91.15;101399.97;2054822;28;44546;-72
2022/02/05 06:16:37;;;;;;;14.10;1.30;;;;;;;1.76;90.98;101406.16;2046215;28;44900;-71
2022/02/05 06:17:41;;;;;;;15.15;1.30;;;;;;;1.70;91.65;101406.91;2046359;28;43727;-71
2022/02/05 06:18:43;;;;;;;20.08;1.42;;;;;;;1.71;91.08;101418.38;2054427;28;41861;-72
2022/02/05 06:19:47;;;;;;;21.17;1.35;;;;;;;1.74;91.76;101414.91;2055326;28;42765;-71
2022/02/05 06:20:51;;;;;;;17.45;1.80;;;;;;;1.72;91.76;101412.22;2054662;28;43951;-72
2022/02/05 06:21:52;;;;;;;15.73;1.65;;;;;;;1.64;91.02;101416.47;2054702;28;45338;-72
2022/02/05 06:22:54;;;;;;;17.02;1.35;;;;;;;1.61;91.54;101417.28;2054758;28;45071;-72
2022/02/05 06:23:56;;;;;;;16.20;1.23;;;;;;;1.60;91.54;101414.59;2055209;28;44546;-72
2022/02/05 06:24:58;;;;;;;16.13;1.38;;;;;;;1.59;91.90;101416.34;2056489;28;38665;-72
2022/02/05 06:25:59;;;;;;;15.07;1.67;;;;;;;1.53;92.07;101425.03;2056644;28;34474;-72
2022/02/05 06:27:01;;;;;;;15.18;1.20;;;;;;;1.48;92.13;101421.41;2056457;28;44641;-71
2022/02/05 06:28:04;;;;;;;17.48;1.52;;;;;;;1.47;92.26;101427.56;2047620;28;38783;-71
2022/02/05 06:29:06;;;;;;;15.30;1.52;;;;;;;1.48;91.82;101423.16;2047696;28;47203;-72
2022/02/05 06:30:08;;;;;;;11.65;1.50;;;;;;;1.43;91.70;101423.03;2056665;28;43352;-71
2022/02/05 06:31:10;;;;;;;15.18;1.60;;;;;;;1.42;92.52;101431.84;2056688;28;43034;-72
2022/02/05 06:32:15;;;;;;;16.48;1.25;;;;;;;1.36;92.26;101423.75;2056108;28;46172;-71
2022/02/05 06:33:17;;;;;;;20.20;1.95;;;;;;;1.38;92.46;101429.97;2056128;28;41097;-71
2022/02/05 06:34:18;;;;;;;21.67;1.50;;;;;;;1.36;92.51;101423.75;2055758;28;44422;-72
2022/02/05 06:35:21;;;;;;;17.90;1.67;;;;;;;1.37;92.93;101437.88;2056248;28;44469;-71
2022/02/05 06:36:24;;;;;;;21.40;1.80;;;;;;;1.42;92.53;101423.00;2056436;28;44970;-71
2022/02/05 06:37:25;;;;;;;12.55;1.42;;;;;;;1.42;92.07;101425.66;2056299;28;44030;-71
2022/02/05 06:38:27;;;;;;;21.08;2.22;;;;;;;1.44;92.84;101430.13;2056331;28;45037;-71
2022/02/05 06:39:29;;;;;;;18.23;1.65;;;;;;;1.42;92.58;101425.66;2056107;28;44092;-71
2022/02/05 06:40:32;;;;;;;22.38;1.50;;;;;;;1.41;92.63;101430.03;2055972;28;45663;-72
2022/02/05 06:41:33;;;;;;;16.08;1.75;;;;;;;1.40;92.69;101427.38;2055722;28;45554;-71
2022/02/05 06:42:36;;;;;;;14.25;1.23;;;;;;;1.44;92.58;101432.75;2056052;28;48003;-72
2022/02/05 06:43:37;;;;;;;16.08;1.50;;;;;;;1.43;92.65;101430.97;2047737;28;38658;-71
2022/02/05 06:44:39;;;;;;;17.23;1.83;;;;;;;1.43;92.33;101436.22;2047582;28;45948;-71
2022/02/05 06:45:41;;;;;;;11.15;1.10;;;;;;;1.46;92.67;101433.69;2055901;28;46174;-71
2022/02/05 06:46:43;;;;;;;15.43;1.27;;;;;;;1.41;92.20;101430.03;2055672;28;45486;-71
2022/02/05 06:47:45;;;;;;;17.95;1.55;;;;;;;1.39;92.28;101429.13;2056299;28;45143;-72
2022/02/05 06:48:46;;;;;;;20.48;1.45;;;;;;;1.46;92.63;101433.69;2056417;28;38675;-71
2022/02/05 06:49:48;;;;;;;14.45;1.40;;;;;;;1.50;92.23;101440.78;2056023;28;45959;-71
2022/02/05 06:50:50;;;;;;;15.45;1.33;;;;;;;1.49;92.76;101444.31;2056390;28;45858;-72
2022/02/05 06:51:53;;;;;;;25.80;1.98;;;;;;;1.47;92.17;101439.84;2055747;28;46566;-72
2022/02/05 06:52:54;;;;;;;20.48;1.63;;;;;;;1.64;93.65;101448.13;2056051;28;45877;-69
2022/02/05 06:53:56;;;;;;;19.30;1.88;;;;;;;1.71;93.94;101440.38;2047740;28;43380;-68
2022/02/05 06:54:58;;;;;;;19.85;2.20;;;;;;;1.70;92.57;101443.88;2045856;28;43734;-75
2022/02/05 06:55:59;;;;;;;18.15;1.73;;;;;;;1.66;92.32;101454.34;2055229;28;45436;-72
2022/02/05 06:57:04;;;;;;;14.15;1.48;;;;;;;1.64;91.86;101448.13;2055932;28;42007;-72
2022/02/05 06:58:06;;;;;;;17.02;1.52;;;;;;;1.62;92.25;101450.75;2055893;28;44480;-72
2022/02/05 06:59:08;;;;;;;14.45;1.50;;;;;;;1.59;92.07;101447.16;2055831;28;43666;-72
2022/02/05 07:00:10;;;;;;;20.30;1.42;;;;;;;1.58;92.66;101448.00;2056851;28;20873;-72